Time;durP1;ratioP1;P1;durP2;ratioP2;P2;SDS_P1;SDS_P2;PMS_P1;PMS_P2;Temp;Humidity;BMP_temperature;BMP_pressure;BME280_temperature;BME280_humidity;BME280_pressure;Samples;Min_cycle;Max_cycle;Signal;HPM_P1;HPM_P2
2023/06/18 00:05:23;;;;;;;18.65;13.55;;;12.40;99.90;;;;;;21071774;28;20074;-48
2023/06/18 00:15:32;;;;;;;19.42;13.30;;;12.30;99.90;;;;;;21069764;28;20028;-49
2023/06/18 00:25:34;;;;;;;23.55;14.15;;;12.10;99.90;;;;;;21070478;28;20039;-47
2023/06/18 00:35:35;;;;;;;19.65;14.73;;;12.00;99.90;;;;;;21069512;28;20121;-53
2023/06/18 00:45:37;;;;;;;19.60;13.82;;;11.90;99.90;;;;;;21068482;28;20040;-52
2023/06/18 00:55:41;;;;;;;22.35;15.32;;;12.00;99.90;;;;;;21067795;28;20032;-54
2023/06/18 01:05:45;;;;;;;20.92;14.35;;;12.00;99.90;;;;;;21067019;28;20083;-53
2023/06/18 01:15:47;;;;;;;24.08;14.57;;;11.90;99.90;;;;;;21048769;28;20040;-48
2023/06/18 01:25:49;;;;;;;26.55;14.68;;;11.80;99.90;;;;;;21048192;28;20090;-52
2023/06/18 01:35:51;;;;;;;22.42;15.25;;;11.80;99.90;;;;;;21065605;28;20040;-49
2023/06/18 01:45:57;;;;;;;20.63;14.70;;;11.80;99.90;;;;;;21064184;28;20036;-49
2023/06/18 01:56:01;;;;;;;20.65;15.13;;;11.80;99.90;;;;;;21060467;28;20043;-48
2023/06/18 02:06:04;;;;;;;21.95;15.57;;;11.90;99.90;;;;;;21045017;28;20082;-53
2023/06/18 02:16:06;;;;;;;21.98;14.52;;;12.00;99.90;;;;;;21062623;28;20032;-47
2023/06/18 02:26:08;;;;;;;23.02;14.90;;;12.00;99.90;;;;;;21063286;28;20435;-47
2023/06/18 02:36:10;;;;;;;22.17;14.60;;;11.90;99.90;;;;;;21062099;28;20113;-45
2023/06/18 02:46:16;;;;;;;21.17;13.65;;;11.70;99.90;;;;;;21058219;28;20035;-49
2023/06/18 02:56:17;;;;;;;22.00;15.02;;;11.70;99.90;;;;;;21077968;28;20028;-52
2023/06/18 03:06:19;;;;;;;20.10;14.27;;;11.60;99.90;;;;;;21074766;28;20028;-47
2023/06/18 03:16:23;;;;;;;24.00;14.50;;;11.50;99.90;;;;;;21057659;28;20032;-53
2023/06/18 03:26:25;;;;;;;23.50;13.80;;;11.40;99.90;;;;;;21053271;28;20032;-51
2023/06/18 03:36:28;;;;;;;18.85;13.80;;;11.40;99.90;;;;;;21072363;28;20048;-46
2023/06/18 03:46:32;;;;;;;20.85;13.70;;;11.40;99.90;;;;;;21085791;28;20445;-48
2023/06/18 03:56:34;;;;;;;18.33;12.57;;;11.50;99.90;;;;;;21054381;28;20032;-44
2023/06/18 04:06:39;;;;;;;21.23;13.38;;;11.40;99.90;;;;;;21054498;28;20032;-46
2023/06/18 04:16:41;;;;;;;18.90;12.48;;;11.50;99.90;;;;;;21053088;28;20028;-47
2023/06/18 04:26:42;;;;;;;18.35;12.75;;;11.70;99.90;;;;;;21052524;28;20036;-53
2023/06/18 04:36:45;;;;;;;17.02;11.43;;;11.90;99.90;;;;;;21051840;28;20090;-45
2023/06/18 04:46:47;;;;;;;19.67;12.70;;;12.00;99.90;;;;;;21047904;28;20036;-47
2023/06/18 04:56:49;;;;;;;14.75;11.27;;;12.20;99.90;;;;;;21049789;28;20089;-46
2023/06/18 05:06:51;;;;;;;16.15;11.57;;;12.50;99.90;;;;;;21048748;28;20086;-48
2023/06/18 05:16:53;;;;;;;15.85;11.73;;;12.90;99.90;;;;;;21048104;28;20035;-50
2023/06/18 05:26:55;;;;;;;17.45;10.48;;;13.10;99.90;;;;;;21047587;28;20039;-48
2023/06/18 05:36:58;;;;;;;21.13;11.98;;;13.30;99.90;;;;;;21047797;28;20504;-48
2023/06/18 05:47:00;;;;;;;21.23;12.05;;;13.60;99.90;;;;;;21046218;28;20501;-45
2023/06/18 05:57:03;;;;;;;15.60;11.25;;;13.90;99.90;;;;;;21045499;28;20112;-53
2023/06/18 06:07:06;;;;;;;15.27;9.68;;;14.20;99.90;;;;;;21025813;28;20035;-51
2023/06/18 06:17:08;;;;;;;10.88;8.88;;;15.10;99.90;;;;;;21044094;28;20031;-47
2023/06/18 06:27:10;;;;;;;8.90;8.00;;;18.50;99.90;;;;;;21043916;28;20369;-51
2023/06/18 06:37:13;;;;;;;8.10;5.90;;;20.80;99.90;;;;;;21039107;28;20105;-49
2023/06/18 06:47:15;;;;;;;8.10;6.78;;;23.20;98.10;;;;;;21077022;28;20036;-54
2023/06/18 06:57:35;;;;;;;8.02;6.63;;;25.20;94.90;;;;;;21059384;28;20432;-53
2023/06/18 07:07:37;;;;;;;7.28;5.60;;;26.30;93.10;;;;;;21060976;28;20043;-53
2023/06/18 07:17:39;;;;;;;9.55;7.57;;;26.90;91.00;;;;;;21041850;28;20035;-55
2023/06/18 07:27:41;;;;;;;9.02;8.23;;;27.20;89.20;;;;;;21065880;28;20032;-55
2023/06/18 07:37:42;;;;;;;21.52;6.93;;;27.20;88.60;;;;;;21071345;28;20056;-52
2023/06/18 07:47:44;;;;;;;8.88;7.13;;;26.80;90.70;;;;;;21055386;28;20062;-55
2023/06/18 07:57:46;;;;;;;11.40;6.50;;;27.30;90.60;;;;;;21072760;28;20032;-54
2023/06/18 08:07:48;;;;;;;7.88;7.07;;;26.60;89.90;;;;;;21072499;28;20562;-52
2023/06/18 08:17:50;;;;;;;9.02;8.18;;;26.50;90.50;;;;;;21071280;28;20370;-55
2023/06/18 08:27:51;;;;;;;8.10;7.30;;;26.60;90.20;;;;;;21071570;28;20564;-51
2023/06/18 08:37:53;;;;;;;8.50;7.68;;;26.60;90.50;;;;;;21068625;28;20048;-50
2023/06/18 08:47:58;;;;;;;11.57;9.82;;;26.50;90.70;;;;;;21050806;28;20081;-54
2023/06/18 08:58:11;;;;;;;8.82;7.43;;;26.60;90.60;;;;;;21068127;28;20097;-47
2023/06/18 09:08:14;;;;;;;9.48;8.48;;;27.00;90.90;;;;;;21064689;28;20109;-55
2023/06/18 09:18:16;;;;;;;7.72;7.03;;;27.10;91.90;;;;;;21066446;28;20032;-53
2023/06/18 09:28:19;;;;;;;10.27;8.05;;;26.40;91.80;;;;;;21065114;28;20054;-47
2023/06/18 09:38:20;;;;;;;8.50;7.70;;;26.40;91.70;;;;;;21065455;28;20500;-54
2023/06/18 09:48:23;;;;;;;10.00;8.98;;;26.50;91.70;;;;;;21062856;28;20039;-51
2023/06/18 09:58:40;;;;;;;10.70;9.57;;;25.80;92.20;;;;;;21062972;28;20490;-51
2023/06/18 10:08:50;;;;;;;8.38;7.30;;;25.80;92.30;;;;;;21063628;28;20152;-53
2023/06/18 10:19:03;;;;;;;9.48;8.35;;;26.10;92.70;;;;;;21059843;28;20016;-49
2023/06/18 10:29:06;;;;;;;10.05;8.05;;;26.00;92.90;;;;;;21061882;28;20485;-53
2023/06/18 10:39:08;;;;;;;15.90;9.25;;;25.80;93.50;;;;;;21061807;28;20081;-53
2023/06/18 10:49:20;;;;;;;11.05;9.05;;;25.60;93.50;;;;;;21061504;28;20078;-50
2023/06/18 10:59:41;;;;;;;12.52;9.73;;;26.00;93.50;;;;;;21063181;28;20032;-52
2023/06/18 11:09:57;;;;;;;10.65;9.55;;;26.20;92.90;;;;;;21076967;28;20027;-49
2023/06/18 11:20:00;;;;;;;11.10;9.90;;;26.50;93.00;;;;;;21090480;28;20028;-51
2023/06/18 11:30:03;;;;;;;10.40;9.40;;;26.40;94.00;;;;;;21075194;28;20036;-51
2023/06/18 11:40:06;;;;;;;10.52;9.43;;;26.50;93.80;;;;;;21074614;28;20386;-54
2023/06/18 11:50:10;;;;;;;10.20;9.20;;;26.70;93.00;;;;;;21073157;28;20043;-55
2023/06/18 12:00:14;;;;;;;13.43;9.63;;;26.60;92.70;;;;;;21054606;28;20058;-51
2023/06/18 12:10:16;;;;;;;11.52;10.43;;;26.90;93.80;;;;;;21072003;28;20024;-54
2023/06/18 12:20:19;;;;;;;11.15;9.95;;;26.80;94.90;;;;;;21071478;28;20024;-52
2023/06/18 12:30:48;;;;;;;10.70;9.60;;;26.90;92.80;;;;;;21070547;28;20062;-52
2023/06/18 12:41:01;;;;;;;10.95;9.85;;;26.70;92.20;;;;;;21043273;28;20511;-52
2023/06/18 12:51:03;;;;;;;9.85;8.85;;;27.00;93.20;;;;;;21068855;28;20539;-54
2023/06/18 13:01:04;;;;;;;11.10;10.10;;;27.50;92.50;;;;;;21067902;28;20028;-53
2023/06/18 13:11:07;;;;;;;11.85;9.65;;;27.40;92.60;;;;;;21067030;28;20031;-53
2023/06/18 13:21:09;;;;;;;9.73;8.05;;;27.10;92.00;;;;;;21065977;28;20028;-55
2023/06/18 13:31:13;;;;;;;9.88;8.48;;;26.70;92.60;;;;;;21065330;28;20424;-51
2023/06/18 13:41:15;;;;;;;10.73;8.50;;;26.70;92.90;;;;;;21064890;28;20051;-49
2023/06/18 13:51:17;;;;;;;9.60;8.70;;;27.10;92.90;;;;;;21079728;28;20396;-55
2023/06/18 14:01:18;;;;;;;8.75;7.80;;;27.40;90.10;;;;;;21046279;28;20031;-51
2023/06/18 14:11:20;;;;;;;9.90;7.78;;;27.10;88.90;;;;;;21060844;28;20434;-53
2023/06/18 14:21:22;;;;;;;7.47;6.75;;;26.00;91.30;;;;;;21062674;28;20032;-53
2023/06/18 14:31:24;;;;;;;8.35;7.18;;;26.70;92.40;;;;;;21061788;28;20459;-51
2023/06/18 14:41:26;;;;;;;8.18;7.47;;;26.90;90.70;;;;;;21057835;28;20047;-52
2023/06/18 14:51:28;;;;;;;9.75;8.30;;;27.00;90.10;;;;;;21052488;28;20036;-55
2023/06/18 15:01:30;;;;;;;8.80;7.78;;;27.30;90.00;;;;;;21077651;28;20040;-45
2023/06/18 15:11:32;;;;;;;8.90;7.93;;;27.50;90.00;;;;;;21089292;28;20081;-52
2023/06/18 15:21:34;;;;;;;10.52;8.30;;;27.30;89.10;;;;;;21076206;28;20081;-50
2023/06/18 15:31:36;;;;;;;9.48;8.32;;;27.00;90.60;;;;;;21073757;28;20074;-53
2023/06/18 15:41:38;;;;;;;8.48;7.68;;;26.50;90.00;;;;;;21073834;28;20409;-54
2023/06/18 15:51:40;;;;;;;10.65;9.52;;;25.70;91.30;;;;;;21051317;28;20343;-51
2023/06/18 16:01:42;;;;;;;10.60;9.52;;;24.80;91.90;;;;;;21070680;28;20032;-51
2023/06/18 16:11:43;;;;;;;11.43;10.10;;;23.60;93.20;;;;;;21067634;28;20409;-52
2023/06/18 16:21:45;;;;;;;10.88;8.60;;;22.50;94.20;;;;;;21071067;28;20024;-50
2023/06/18 16:31:47;;;;;;;11.65;9.60;;;21.70;95.20;;;;;;21068696;28;20024;-53
2023/06/18 16:41:49;;;;;;;42.70;10.30;;;21.40;96.60;;;;;;21068606;28;20048;-54
2023/06/18 16:51:51;;;;;;;10.40;9.10;;;21.80;96.60;;;;;;21049227;28;20032;-48
2023/06/18 17:01:52;;;;;;;12.98;10.50;;;21.60;95.50;;;;;;21047647;28;20506;-49
2023/06/18 17:11:55;;;;;;;11.52;9.82;;;20.90;97.20;;;;;;21068317;28;20522;-53
2023/06/18 17:21:58;;;;;;;11.18;9.95;;;20.20;98.30;;;;;;21067177;28;20036;-50
2023/06/18 17:31:59;;;;;;;13.27;11.30;;;19.70;99.20;;;;;;21059198;28;20031;-52
2023/06/18 17:42:01;;;;;;;11.98;10.73;;;19.40;98.70;;;;;;21066717;28;20048;-50
2023/06/18 17:52:04;;;;;;;11.57;10.38;;;19.00;99.30;;;;;;21060759;28;20032;-51
2023/06/18 18:02:06;;;;;;;13.20;10.85;;;18.70;99.90;;;;;;21045534;28;20032;-51
2023/06/18 18:12:11;;;;;;;12.68;11.32;;;18.40;99.70;;;;;;21058850;28;20035;-49
2023/06/18 18:22:12;;;;;;;14.23;11.50;;;18.00;99.90;;;;;;21062949;28;20118;-48
2023/06/18 18:32:14;;;;;;;15.25;11.40;;;17.30;99.90;;;;;;21062119;28;20082;-52
2023/06/18 18:42:16;;;;;;;16.33;12.98;;;16.80;99.90;;;;;;21058980;28;20490;-51
2023/06/18 18:52:17;;;;;;;20.73;13.90;;;16.50;99.90;;;;;;21061807;28;20992;-52
2023/06/18 19:02:19;;;;;;;25.33;14.20;;;16.20;99.90;;;;;;21058639;28;20020;-51
2023/06/18 19:12:23;;;;;;;17.30;14.93;;;15.80;99.90;;;;;;21059128;28;20073;-51
2023/06/18 19:22:31;;;;;;;17.85;15.50;;;15.50;99.90;;;;;;21065443;28;20042;-53
2023/06/18 19:32:34;;;;;;;20.07;14.00;;;15.00;99.90;;;;;;21056974;28;20101;-51
2023/06/18 19:42:35;;;;;;;19.05;14.65;;;14.70;99.90;;;;;;21054071;28;20056;-51
2023/06/18 19:52:37;;;;;;;19.95;14.98;;;14.60;99.90;;;;;;21055541;28;20090;-50
2023/06/18 20:02:39;;;;;;;19.92;15.57;;;14.40;99.90;;;;;;21072822;28;20043;-50
2023/06/18 20:12:42;;;;;;;21.30;17.85;;;14.20;99.90;;;;;;21071138;28;20097;-52
2023/06/18 20:22:44;;;;;;;24.95;18.40;;;14.10;99.90;;;;;;21052641;28;20101;-50
2023/06/18 20:32:46;;;;;;;23.35;17.83;;;14.20;99.90;;;;;;21069314;28;20045;-49
2023/06/18 20:42:47;;;;;;;22.30;17.63;;;14.20;99.90;;;;;;21068831;28;20051;-49
2023/06/18 20:52:49;;;;;;;22.95;18.25;;;14.20;99.90;;;;;;21068798;28;20396;-49
2023/06/18 21:02:52;;;;;;;24.08;18.35;;;14.30;99.90;;;;;;21066836;28;20036;-51
2023/06/18 21:12:53;;;;;;;20.50;17.17;;;14.30;99.90;;;;;;21065690;28;20084;-47
2023/06/18 21:22:55;;;;;;;19.85;16.98;;;14.40;99.90;;;;;;21066012;28;20493;-52
2023/06/18 21:32:57;;;;;;;19.30;15.02;;;14.20;99.90;;;;;;21065346;28;20418;-48
2023/06/18 21:42:59;;;;;;;18.95;15.25;;;14.50;99.90;;;;;;21063126;28;20101;-50
2023/06/18 21:53:00;;;;;;;22.33;15.50;;;14.30;99.90;;;;;;21063612;28;20397;-52
2023/06/18 22:03:03;;;;;;;17.55;13.93;;;14.50;99.90;;;;;;21061770;28;20040;-47
2023/06/18 22:13:05;;;;;;;19.05;14.80;;;14.50;99.90;;;;;;21063913;28;20058;-52
2023/06/18 22:23:08;;;;;;;18.20;14.35;;;14.40;99.90;;;;;;21063181;28;20428;-50
2023/06/18 22:33:10;;;;;;;22.92;14.10;;;14.20;99.90;;;;;;21044107;28;20443;-48
2023/06/18 22:43:12;;;;;;;17.92;13.52;;;14.10;99.90;;;;;;21061563;28;20462;-50
2023/06/18 22:53:13;;;;;;;14.95;12.95;;;13.80;99.90;;;;;;21043962;28;20097;-46
2023/06/18 23:03:16;;;;;;;17.00;12.63;;;13.70;99.90;;;;;;21076156;28;20028;-49
2023/06/18 23:13:17;;;;;;;18.58;12.88;;;13.90;99.90;;;;;;21076836;28;20040;-49
2023/06/18 23:23:19;;;;;;;16.52;14.02;;;13.80;99.90;;;;;;21076611;28;20427;-47
2023/06/18 23:33:20;;;;;;;15.30;12.57;;;13.70;99.90;;;;;;21040487;28;20093;-54
2023/06/18 23:43:22;;;;;;;15.70;12.43;;;14.00;99.90;;;;;;21074774;28;20063;-48
2023/06/18 23:53:23;;;;;;;15.68;11.80;;;14.30;99.90;;;;;;21074113;28;20024;-50
